SJS weather

Big Sandy Regional Airport
Prestonsburg, Kentucky, United States

Public forecast

Using degrees Fahrenheit for public forecast. Weather courtesy of forecast.io.

Current aviation weather report (METAR) for Big Sandy Regional Airport

Retrieved 2019/10/21 13:35 UTC (18 minutes ago):

KSJS 211335Z AUTO 14007KT 10SM CLR 17/14 A2995 RMK AO2 T01660138

Closest aviation forecast (TAF) to Big Sandy Regional Airport

Closest forecast is Julian Carroll Airport, 33.7 nm (62.4 km) WSW. Retrieved 2019/10/21 12:39 UTC (1 hour ago):

TAF KJKL 211137Z 2112/2212 VRB03KT P6SM SCT020 FM211600 18009G20KT P6SM SCT150 FM212000 19009G23KT P6SM VCSH SCT050 BKN150 FM220200 19008G20KT 4SM -SHRA VCTS OVC040CB FM220600 18008KT 5SM -SHRA BR OVC035